Time,TemperatureF,DewpointF,PressureIn,WindDirection,WindDirectionDegrees,WindSpeedMPH,WindSpeedGustMPH,Humidity,HourlyPrecipIn,Conditions,Clouds,dailyrainin,SoftwareType,DateUTC
2013-01-30 00:04:00,68.5,43.9,29.72,NNW,330,9.0,17.0,41,0.00,,,0.00,meteohub,2013-01-30 06:04:00,
2013-01-30 00:09:00,68.5,43.9,29.71,NNW,340,7.0,17.0,41,0.00,,,0.00,meteohub,2013-01-30 06:09:00,
2013-01-30 00:14:00,68.5,43.9,29.72,NNW,347,7.0,17.0,41,0.00,,,0.00,meteohub,2013-01-30 06:14:00,
2013-01-30 00:19:00,68.5,43.9,29.72,North,356,7.0,16.0,41,0.00,,,0.00,meteohub,2013-01-30 06:19:00,
2013-01-30 00:24:00,68.4,43.7,29.72,NNW,330,11.0,16.0,41,0.00,,,0.00,meteohub,2013-01-30 06:24:00,
2013-01-30 00:29:00,68.4,43.7,29.73,NNW,345,10.0,17.0,41,0.00,,,0.00,meteohub,2013-01-30 06:29:00,
2013-01-30 00:34:00,68.2,43.5,29.73,North,9,10.0,17.0,41,0.00,,,0.00,meteohub,2013-01-30 06:34:00,
2013-01-30 00:39:00,68.2,43.5,29.73,NW,323,10.0,17.0,41,0.00,,,0.00,meteohub,2013-01-30 06:39:00,
2013-01-30 00:44:00,67.8,43.9,29.73,NNW,340,9.0,17.0,42,0.00,,,0.00,meteohub,2013-01-30 06:44:00,
2013-01-30 00:49:00,67.8,43.9,29.74,NNW,337,8.0,17.0,42,0.00,,,0.00,meteohub,2013-01-30 06:49:00,
2013-01-30 00:54:00,67.6,43.7,29.74,North,351,8.0,16.0,42,0.00,,,0.00,meteohub,2013-01-30 06:54:00,
2013-01-30 00:59:00,67.6,43.7,29.74,North,354,14.0,16.0,42,0.00,,,0.00,meteohub,2013-01-30 06:59:00,
2013-01-30 01:04:00,67.5,43.5,29.74,NNE,27,18.0,18.0,42,0.00,,,0.00,meteohub,2013-01-30 07:04:00,
2013-01-30 01:09:00,67.3,44.1,29.74,North,354,8.0,20.0,43,0.00,,,0.00,meteohub,2013-01-30 07:09:00,
2013-01-30 01:14:00,67.3,44.1,29.75,NNW,338,7.0,20.0,43,0.00,,,0.00,meteohub,2013-01-30 07:14:00,
2013-01-30 01:19:00,67.1,43.9,29.76,North,1,13.0,20.0,43,0.00,,,0.00,meteohub,2013-01-30 07:19:00,
2013-01-30 01:24:00,66.9,43.7,29.76,NNW,342,8.0,18.0,43,0.00,,,0.00,meteohub,2013-01-30 07:24:00,
2013-01-30 01:29:00,66.9,43.7,29.76,NNE,26,11.0,18.0,43,0.00,,,0.00,meteohub,2013-01-30 07:29:00,
2013-01-30 01:35:00,66.9,43.2,29.77,NNE,29,8.0,19.0,42,0.00,,,0.00,meteohub,2013-01-30 07:35:00,
2013-01-30 01:40:00,66.7,43.5,29.77,NNE,27,7.0,19.0,43,0.00,,,0.00,meteohub,2013-01-30 07:40:00,
2013-01-30 01:45:00,66.6,44.1,29.77,NW,319,13.0,19.0,44,0.00,,,0.00,meteohub,2013-01-30 07:45:00,
2013-01-30 01:50:00,66.6,44.1,29.77,North,356,11.0,19.0,44,0.00,,,0.00,meteohub,2013-01-30 07:50:00,
2013-01-30 01:55:00,66.4,41.4,29.78,NE,44,15.0,17.0,40,0.00,,,0.00,meteohub,2013-01-30 07:55:00,
2013-01-30 02:00:00,66.2,39.2,29.78,North,357,13.0,20.0,37,0.00,,,0.00,meteohub,2013-01-30 08:00:00,
2013-01-30 02:05:00,66.0,37.6,29.78,NW,326,12.0,23.0,35,0.00,,,0.00,meteohub,2013-01-30 08:05:00,
2013-01-30 02:10:00,66.0,36.9,29.78,NNW,338,11.0,23.0,34,0.00,,,0.00,meteohub,2013-01-30 08:10:00,
2013-01-30 02:15:00,65.8,36.7,29.78,NNW,330,8.0,25.0,34,0.00,,,0.00,meteohub,2013-01-30 08:15:00,
2013-01-30 02:20:00,65.7,36.5,29.79,NNW,338,11.0,25.0,34,0.00,,,0.00,meteohub,2013-01-30 08:20:00,
2013-01-30 02:25:00,65.5,35.6,29.79,NNW,335,12.0,25.0,33,0.00,,,0.00,meteohub,2013-01-30 08:25:00,
2013-01-30 02:30:00,65.5,34.9,29.79,NNW,331,15.0,19.0,32,0.00,,,0.00,meteohub,2013-01-30 08:30:00,
2013-01-30 02:35:00,65.1,34.5,29.80,NNE,24,11.0,22.0,32,0.00,,,0.00,meteohub,2013-01-30 08:35:00,
2013-01-30 02:40:00,65.1,34.5,29.80,NW,326,10.0,23.0,32,0.00,,,0.00,meteohub,2013-01-30 08:40:00,
2013-01-30 02:45:00,64.9,33.6,29.80,North,353,10.0,23.0,31,0.00,,,0.00,meteohub,2013-01-30 08:45:00,
2013-01-30 02:50:00,64.8,33.4,29.80,NNE,15,10.0,21.0,31,0.00,,,0.00,meteohub,2013-01-30 08:50:00,
2013-01-30 02:55:00,64.6,32.4,29.80,NW,326,9.0,22.0,30,0.00,,,0.00,meteohub,2013-01-30 08:55:00,
2013-01-30 03:00:00,64.6,31.6,29.81,North,8,14.0,22.0,29,0.00,,,0.00,meteohub,2013-01-30 09:00:00,
2013-01-30 03:06:00,64.6,31.6,29.81,North,8,8.0,22.0,29,0.00,,,0.00,meteohub,2013-01-30 09:06:00,
2013-01-30 03:11:00,64.2,31.3,29.81,NNW,348,12.0,20.0,29,0.00,,,0.00,meteohub,2013-01-30 09:11:00,
2013-01-30 03:16:00,64.2,31.3,29.82,NW,314,11.0,20.0,29,0.00,,,0.00,meteohub,2013-01-30 09:16:00,
2013-01-30 03:21:00,64.0,29.3,29.81,NNE,20,14.0,18.0,27,0.00,,,0.00,meteohub,2013-01-30 09:21:00,
2013-01-30 03:26:00,64.0,28.4,29.82,NNE,17,12.0,19.0,26,0.00,,,0.00,meteohub,2013-01-30 09:26:00,
2013-01-30 03:31:00,63.9,28.2,29.82,NNW,332,14.0,19.0,26,0.00,,,0.00,meteohub,2013-01-30 09:31:00,
2013-01-30 03:36:00,63.9,28.2,29.82,North,351,17.0,22.0,26,0.00,,,0.00,meteohub,2013-01-30 09:36:00,
2013-01-30 03:41:00,63.7,28.2,29.82,North,350,11.0,22.0,26,0.00,,,0.00,meteohub,2013-01-30 09:41:00,
2013-01-30 03:46:00,63.7,28.2,29.83,North,354,11.0,22.0,26,0.00,,,0.00,meteohub,2013-01-30 09:46:00,
2013-01-30 03:51:00,63.5,28.0,29.83,NNW,339,11.0,18.0,26,0.00,,,0.00,meteohub,2013-01-30 09:51:00,
2013-01-30 03:56:00,63.3,27.9,29.83,NW,326,11.0,18.0,26,0.00,,,0.00,meteohub,2013-01-30 09:56:00,
2013-01-30 04:01:00,63.3,27.9,29.83,North,5,16.0,18.0,26,0.00,,,0.00,meteohub,2013-01-30 10:01:00,
2013-01-30 04:06:00,63.1,27.7,29.84,NNW,333,8.0,18.0,26,0.00,,,0.00,meteohub,2013-01-30 10:06:00,
2013-01-30 04:11:00,63.0,28.4,29.84,NW,312,6.0,18.0,27,0.00,,,0.00,meteohub,2013-01-30 10:11:00,
2013-01-30 04:16:00,62.2,27.0,29.84,NW,326,8.0,18.0,26,0.00,,,0.00,meteohub,2013-01-30 10:16:00,
2013-01-30 04:21:00,62.2,27.0,29.85,NW,326,8.0,15.0,26,0.00,,,0.00,meteohub,2013-01-30 10:21:00,
2013-01-30 04:26:00,62.2,27.0,29.85,North,-999,-999.0,15.0,26,0.00,,,0.00,meteohub,2013-01-30 10:26:00,
2013-01-30 07:41:00,53.4,29.1,29.99,North,-999,-999.0,-999.0,39,-99.99,,,0.00,meteohub,2013-01-30 13:41:00,
2013-01-30 07:46:00,53.4,28.4,29.99,North,-999,-999.0,-999.0,38,0.00,,,0.00,meteohub,2013-01-30 13:46:00,
2013-01-30 07:51:00,53.4,28.4,29.99,West,277,7.0,10.0,38,0.00,,,0.00,meteohub,2013-01-30 13:51:00,
2013-01-30 07:57:00,53.6,28.6,29.99,NW,309,6.0,11.0,38,0.00,,,0.00,meteohub,2013-01-30 13:57:00,
2013-01-30 08:02:00,53.6,28.0,30.00,NW,310,9.0,11.0,37,0.00,,,0.00,meteohub,2013-01-30 14:02:00,
2013-01-30 08:07:00,53.8,28.0,30.00,NW,309,4.0,15.0,37,0.00,,,0.00,meteohub,2013-01-30 14:07:00,
2013-01-30 08:12:00,54.0,28.2,30.01,WNW,303,8.0,15.0,37,0.00,,,0.00,meteohub,2013-01-30 14:12:00,
2013-01-30 08:17:00,54.1,28.4,30.01,NW,309,7.0,15.0,37,0.00,,,0.00,meteohub,2013-01-30 14:17:00,
2013-01-30 08:22:00,54.5,28.0,30.01,WNW,300,7.0,14.0,36,0.00,,,0.00,meteohub,2013-01-30 14:22:00,
2013-01-30 08:27:00,54.7,27.5,30.01,NW,305,6.0,14.0,35,0.00,,,0.00,meteohub,2013-01-30 14:27:00,
2013-01-30 08:32:00,54.9,27.7,30.02,WNW,300,7.0,14.0,35,0.00,,,0.00,meteohub,2013-01-30 14:32:00,
2013-01-30 08:37:00,55.0,27.9,30.01,WNW,301,6.0,15.0,35,0.00,,,0.00,meteohub,2013-01-30 14:37:00,
2013-01-30 08:42:00,55.2,27.3,30.02,NW,307,13.0,15.0,34,0.00,,,0.00,meteohub,2013-01-30 14:42:00,
2013-01-30 08:47:00,55.6,27.7,30.02,West,280,9.0,15.0,34,0.00,,,0.00,meteohub,2013-01-30 14:47:00,
2013-01-30 08:52:00,55.9,27.3,30.03,WNW,295,8.0,17.0,33,0.00,,,0.00,meteohub,2013-01-30 14:52:00,
2013-01-30 08:57:00,56.1,27.3,30.03,NW,309,8.0,17.0,33,0.00,,,0.00,meteohub,2013-01-30 14:57:00,
2013-01-30 09:02:00,56.7,27.9,30.03,NW,304,9.0,17.0,33,0.00,,,0.00,meteohub,2013-01-30 15:02:00,
2013-01-30 09:07:00,57.4,26.2,30.04,NW,304,5.0,18.0,30,0.00,,,0.00,meteohub,2013-01-30 15:07:00,
2013-01-30 09:12:00,58.3,26.2,30.04,NW,306,11.0,18.0,29,0.00,,,0.00,meteohub,2013-01-30 15:12:00,
2013-01-30 09:17:00,58.8,25.0,30.04,NW,306,22.0,22.0,27,0.00,,,0.00,meteohub,2013-01-30 15:17:00,
2013-01-30 09:22:00,59.2,25.2,30.05,WNW,295,7.0,23.0,27,0.00,,,0.00,meteohub,2013-01-30 15:22:00,
2013-01-30 09:27:00,59.5,23.7,30.05,WNW,295,16.0,23.0,25,0.00,,,0.00,meteohub,2013-01-30 15:27:00,
2013-01-30 09:32:00,59.9,23.9,30.05,NW,324,21.0,28.0,25,0.00,,,0.00,meteohub,2013-01-30 15:32:00,
2013-01-30 09:38:00,60.1,22.1,30.06,NW,318,15.0,31.0,23,0.00,,,0.00,meteohub,2013-01-30 15:38:00,
2013-01-30 09:43:00,60.4,22.5,30.06,WNW,282,9.0,31.0,23,0.00,,,0.00,meteohub,2013-01-30 15:43:00,
2013-01-30 09:48:00,60.4,21.4,30.06,WNW,295,28.0,32.0,22,0.00,,,0.00,meteohub,2013-01-30 15:48:00,
2013-01-30 09:53:00,60.3,21.2,30.06,WNW,301,16.0,32.0,22,0.00,,,0.00,meteohub,2013-01-30 15:53:00,
2013-01-30 09:58:00,60.4,20.3,30.07,NW,304,28.0,31.0,21,0.00,,,0.00,meteohub,2013-01-30 15:58:00,
2013-01-30 10:03:00,60.4,20.3,30.07,NW,326,18.0,33.0,21,0.00,,,0.00,meteohub,2013-01-30 16:03:00,
2013-01-30 10:08:00,60.6,20.5,30.07,NW,304,20.0,33.0,21,0.00,,,0.00,meteohub,2013-01-30 16:08:00,
2013-01-30 10:13:00,61.2,20.8,30.08,WNW,298,10.0,33.0,21,0.00,,,0.00,meteohub,2013-01-30 16:13:00,
2013-01-30 10:18:00,61.2,20.8,30.08,WNW,298,17.0,31.0,21,0.00,,,0.00,meteohub,2013-01-30 16:18:00,
2013-01-30 10:23:00,61.2,19.8,30.08,NW,321,17.0,30.0,20,0.00,,,0.00,meteohub,2013-01-30 16:23:00,
2013-01-30 10:28:00,61.5,20.1,30.08,NW,326,20.0,35.0,20,0.00,,,0.00,meteohub,2013-01-30 16:28:00,
2013-01-30 10:33:00,61.9,21.6,30.08,WNW,295,28.0,35.0,21,0.01,,,0.01,meteohub,2013-01-30 16:33:00,
2013-01-30 10:38:00,61.9,20.3,30.08,WNW,297,19.0,35.0,20,0.01,,,0.01,meteohub,2013-01-30 16:38:00,
2013-01-30 10:43:00,61.9,19.2,30.08,WNW,296,18.0,28.0,19,0.01,,,0.01,meteohub,2013-01-30 16:43:00,
2013-01-30 10:48:00,61.9,19.2,30.09,NW,307,16.0,28.0,19,0.01,,,0.01,meteohub,2013-01-30 16:48:00,
2013-01-30 10:53:00,61.5,20.1,30.08,WNW,297,20.0,33.0,20,0.01,,,0.01,meteohub,2013-01-30 16:53:00,
2013-01-30 10:59:00,62.1,20.5,30.08,North,352,13.0,33.0,20,0.01,,,0.01,meteohub,2013-01-30 16:59:00,
2013-01-30 11:04:00,62.2,20.7,30.09,West,276,11.0,33.0,20,0.01,,,0.01,meteohub,2013-01-30 17:04:00,
2013-01-30 11:09:00,62.4,20.8,30.08,NW,326,15.0,31.0,20,0.01,,,0.01,meteohub,2013-01-30 17:09:00,
2013-01-30 11:14:00,62.4,20.8,30.08,WNW,303,12.0,27.0,20,0.01,,,0.01,meteohub,2013-01-30 17:14:00,
2013-01-30 11:19:00,62.8,19.9,30.08,WNW,298,15.0,27.0,19,0.01,,,0.01,meteohub,2013-01-30 17:19:00,
2013-01-30 11:24:00,62.6,19.8,30.08,NW,318,21.0,29.0,19,0.01,,,0.01,meteohub,2013-01-30 17:24:00,
2013-01-30 11:29:00,62.8,19.9,30.08,NW,321,22.0,35.0,19,0.01,,,0.01,meteohub,2013-01-30 17:29:00,
2013-01-30 11:34:00,63.0,20.1,30.08,NW,304,21.0,35.0,19,0.00,,,0.01,meteohub,2013-01-30 17:34:00,
2013-01-30 11:39:00,63.0,18.9,30.08,NW,314,13.0,35.0,18,0.00,,,0.01,meteohub,2013-01-30 17:39:00,
2013-01-30 11:44:00,63.1,20.1,30.08,NW,318,19.0,29.0,19,0.00,,,0.01,meteohub,2013-01-30 17:44:00,
2013-01-30 11:49:00,63.1,20.1,30.08,NW,306,14.0,28.0,19,0.00,,,0.01,meteohub,2013-01-30 17:49:00,
2013-01-30 11:54:00,63.3,20.3,30.08,WNW,297,12.0,28.0,19,0.00,,,0.01,meteohub,2013-01-30 17:54:00,
2013-01-30 11:59:00,63.7,20.7,30.07,NW,307,22.0,27.0,19,0.00,,,0.01,meteohub,2013-01-30 17:59:00,
2013-01-30 12:05:00,64.0,21.0,30.07,NW,316,17.0,28.0,19,0.00,,,0.01,meteohub,2013-01-30 18:05:00,
2013-01-30 12:10:00,63.7,20.7,30.06,NNW,328,18.0,28.0,19,0.00,,,0.01,meteohub,2013-01-30 18:10:00,
2013-01-30 12:15:00,63.5,21.7,30.07,WNW,295,15.0,28.0,20,0.00,,,0.01,meteohub,2013-01-30 18:15:00,
2013-01-30 12:20:00,63.7,21.9,30.07,WNW,297,13.0,29.0,20,0.00,,,0.01,meteohub,2013-01-30 18:20:00,
2013-01-30 12:25:00,63.9,20.8,30.06,NW,312,11.0,29.0,19,0.00,,,0.01,meteohub,2013-01-30 18:25:00,
2013-01-30 12:30:00,63.9,20.8,30.06,NW,312,11.0,29.0,19,0.00,,,0.01,meteohub,2013-01-30 18:30:00,
2013-01-30 12:35:00,63.9,19.6,30.06,NW,326,17.0,28.0,18,0.00,,,0.01,meteohub,2013-01-30 18:35:00,
2013-01-30 12:40:00,64.0,21.0,30.06,NW,310,18.0,28.0,19,0.00,,,0.01,meteohub,2013-01-30 18:40:00,
2013-01-30 12:45:00,64.0,16.9,30.06,WNW,294,14.0,28.0,16,0.00,,,0.01,meteohub,2013-01-30 18:45:00,
2013-01-30 12:50:00,63.9,20.8,30.06,WNW,288,14.0,26.0,19,0.00,,,0.01,meteohub,2013-01-30 18:50:00,
2013-01-30 12:55:00,64.2,18.5,30.05,NW,312,22.0,29.0,17,0.00,,,0.01,meteohub,2013-01-30 18:55:00,
2013-01-30 13:00:00,64.0,18.3,30.05,NW,307,24.0,29.0,17,0.00,,,0.01,meteohub,2013-01-30 19:00:00,
2013-01-30 13:05:00,64.2,18.5,30.05,NNW,332,23.0,27.0,17,0.00,,,0.01,meteohub,2013-01-30 19:05:00,
2013-01-30 13:10:00,64.2,19.8,30.05,WNW,295,14.0,28.0,18,0.00,,,0.01,meteohub,2013-01-30 19:10:00,
2013-01-30 13:15:00,64.9,20.5,30.04,NW,323,14.0,28.0,18,0.00,,,0.01,meteohub,2013-01-30 19:15:00,
2013-01-30 13:20:00,64.8,20.3,30.04,North,355,17.0,27.0,18,0.00,,,0.01,meteohub,2013-01-30 19:20:00,
2013-01-30 13:26:00,64.8,20.3,30.04,NW,304,14.0,28.0,18,0.00,,,0.01,meteohub,2013-01-30 19:26:00,
2013-01-30 13:31:00,64.9,20.5,30.04,NNW,348,19.0,28.0,18,0.00,,,0.01,meteohub,2013-01-30 19:31:00,
2013-01-30 13:36:00,64.4,18.7,30.04,WNW,293,25.0,30.0,17,0.00,,,0.01,meteohub,2013-01-30 19:36:00,
2013-01-30 13:41:00,64.9,20.5,30.04,WNW,298,13.0,32.0,18,0.00,,,0.01,meteohub,2013-01-30 19:41:00,
2013-01-30 13:46:00,64.8,20.3,30.04,WNW,288,20.0,32.0,18,0.00,,,0.01,meteohub,2013-01-30 19:46:00,
2013-01-30 13:51:00,64.8,20.3,30.04,NW,304,24.0,30.0,18,0.00,,,0.01,meteohub,2013-01-30 19:51:00,
2013-01-30 13:56:00,65.1,19.2,30.04,North,358,12.0,31.0,17,0.00,,,0.01,meteohub,2013-01-30 19:56:00,
2013-01-30 14:01:00,65.5,19.6,30.04,NW,306,12.0,31.0,17,0.00,,,0.01,meteohub,2013-01-30 20:01:00,
2013-01-30 14:06:00,65.5,19.6,30.03,NW,323,22.0,31.0,17,0.00,,,0.01,meteohub,2013-01-30 20:06:00,
2013-01-30 14:11:00,65.8,18.3,30.03,NW,312,11.0,25.0,16,0.00,,,0.01,meteohub,2013-01-30 20:11:00,
2013-01-30 14:16:00,66.2,18.7,30.03,NW,309,19.0,27.0,16,0.00,,,0.01,meteohub,2013-01-30 20:16:00,
2013-01-30 14:21:00,66.4,18.9,30.03,WNW,293,16.0,27.0,16,0.00,,,0.01,meteohub,2013-01-30 20:21:00,
2013-01-30 14:26:00,66.2,17.2,30.03,NW,304,20.0,29.0,15,0.00,,,0.01,meteohub,2013-01-30 20:26:00,
2013-01-30 14:31:00,66.2,17.2,30.02,WNW,297,14.0,29.0,15,0.00,,,0.01,meteohub,2013-01-30 20:31:00,
2013-01-30 14:36:00,66.6,17.4,30.02,NW,325,13.0,29.0,15,0.00,,,0.01,meteohub,2013-01-30 20:36:00,
2013-01-30 14:41:00,66.6,15.8,30.02,NW,308,29.0,29.0,14,0.00,,,0.01,meteohub,2013-01-30 20:41:00,
2013-01-30 14:46:00,66.7,16.0,30.02,NNW,329,12.0,29.0,14,0.00,,,0.01,meteohub,2013-01-30 20:46:00,
2013-01-30 14:51:00,66.9,16.2,30.02,WNW,296,15.0,29.0,14,0.00,,,0.01,meteohub,2013-01-30 20:51:00,
2013-01-30 14:56:00,67.3,14.7,30.01,NW,323,21.0,29.0,13,0.00,,,0.01,meteohub,2013-01-30 20:56:00,
2013-01-30 15:01:00,66.7,16.0,30.01,WNW,283,20.0,32.0,14,0.00,,,0.01,meteohub,2013-01-30 21:01:00,
2013-01-30 15:06:00,66.9,14.5,30.02,NW,320,13.0,33.0,13,0.00,,,0.01,meteohub,2013-01-30 21:06:00,
2013-01-30 15:11:00,67.1,14.5,30.01,NW,321,15.0,33.0,13,0.00,,,0.01,meteohub,2013-01-30 21:11:00,
2013-01-30 15:16:00,66.9,14.5,30.01,WNW,290,11.0,33.0,13,0.00,,,0.01,meteohub,2013-01-30 21:16:00,
2013-01-30 15:21:00,66.7,14.4,30.01,NNW,332,22.0,34.0,13,0.00,,,0.01,meteohub,2013-01-30 21:21:00,
2013-01-30 15:26:00,66.9,12.6,30.02,NW,312,9.0,34.0,12,0.00,,,0.01,meteohub,2013-01-30 21:26:00,
2013-01-30 15:31:00,66.7,12.6,30.02,WNW,288,13.0,34.0,12,0.00,,,0.01,meteohub,2013-01-30 21:31:00,
2013-01-30 15:36:00,66.6,14.2,30.02,NW,314,21.0,34.0,13,0.00,,,0.01,meteohub,2013-01-30 21:36:00,
2013-01-30 15:41:00,66.6,12.4,30.03,WNW,300,22.0,30.0,12,0.00,,,0.01,meteohub,2013-01-30 21:41:00,
2013-01-30 15:46:00,66.2,12.0,30.03,NW,315,25.0,31.0,12,0.00,,,0.01,meteohub,2013-01-30 21:46:00,
2013-01-30 15:51:00,66.0,12.0,30.03,NNW,336,13.0,31.0,12,0.00,,,0.01,meteohub,2013-01-30 21:51:00,
2013-01-30 15:56:00,65.7,13.5,30.03,WNW,300,23.0,31.0,13,0.00,,,0.01,meteohub,2013-01-30 21:56:00,
2013-01-30 16:01:00,66.2,13.8,30.03,WNW,298,11.0,26.0,13,0.00,,,0.01,meteohub,2013-01-30 22:01:00,
2013-01-30 16:06:00,66.4,12.2,30.03,WNW,300,17.0,26.0,12,0.00,,,0.01,meteohub,2013-01-30 22:06:00,
2013-01-30 16:11:00,65.8,11.8,30.04,NW,313,16.0,27.0,12,0.00,,,0.01,meteohub,2013-01-30 22:11:00,
2013-01-30 16:16:00,65.7,9.7,30.04,WNW,303,17.0,29.0,11,0.00,,,0.01,meteohub,2013-01-30 22:16:00,
2013-01-30 16:21:00,65.3,11.3,30.04,NNW,330,17.0,29.0,12,0.00,,,0.01,meteohub,2013-01-30 22:21:00,
2013-01-30 16:26:00,65.3,13.1,30.04,WNW,300,15.0,31.0,13,0.00,,,0.01,meteohub,2013-01-30 22:26:00,
2013-01-30 16:31:00,65.5,13.3,30.04,West,276,14.0,31.0,13,0.00,,,0.01,meteohub,2013-01-30 22:31:00,
2013-01-30 16:37:00,65.5,13.3,30.04,WNW,293,11.0,29.0,13,0.00,,,0.01,meteohub,2013-01-30 22:37:00,
2013-01-30 16:42:00,65.5,13.3,30.05,NW,309,16.0,29.0,13,0.00,,,0.01,meteohub,2013-01-30 22:42:00,
2013-01-30 16:47:00,64.9,11.1,30.05,NW,309,18.0,27.0,12,0.00,,,0.01,meteohub,2013-01-30 22:47:00,
2013-01-30 16:52:00,64.9,12.9,30.05,NW,323,11.0,27.0,13,0.00,,,0.01,meteohub,2013-01-30 22:52:00,
2013-01-30 16:57:00,64.9,14.5,30.06,NW,306,13.0,28.0,14,0.00,,,0.01,meteohub,2013-01-30 22:57:00,
2013-01-30 17:02:00,64.6,14.4,30.06,NW,309,9.0,28.0,14,0.00,,,0.01,meteohub,2013-01-30 23:02:00,
2013-01-30 17:07:00,64.2,15.6,30.06,NW,315,15.0,27.0,15,0.00,,,0.01,meteohub,2013-01-30 23:07:00,
2013-01-30 17:12:00,64.0,15.4,30.06,WNW,297,14.0,26.0,15,0.00,,,0.01,meteohub,2013-01-30 23:12:00,
2013-01-30 17:17:00,63.9,16.7,30.06,NNW,329,17.0,26.0,16,0.00,,,0.01,meteohub,2013-01-30 23:17:00,
2013-01-30 17:22:00,63.7,16.7,30.06,NW,326,13.0,23.0,16,0.00,,,0.01,meteohub,2013-01-30 23:22:00,
2013-01-30 17:27:00,63.5,16.5,30.07,NW,323,4.0,21.0,16,0.00,,,0.01,meteohub,2013-01-30 23:27:00,
2013-01-30 17:32:00,63.3,17.8,30.07,WNW,299,11.0,21.0,17,0.00,,,0.01,meteohub,2013-01-30 23:32:00,
2013-01-30 17:37:00,63.1,16.2,30.07,WNW,302,17.0,21.0,16,0.00,,,0.01,meteohub,2013-01-30 23:37:00,
2013-01-30 17:42:00,63.0,16.0,30.07,NW,304,12.0,21.0,16,0.00,,,0.01,meteohub,2013-01-30 23:42:00,
2013-01-30 17:47:00,62.8,17.2,30.07,NW,326,7.0,21.0,17,0.00,,,0.01,meteohub,2013-01-30 23:47:00,
2013-01-30 17:52:00,62.8,17.2,30.07,NNW,329,6.0,21.0,17,0.00,,,0.01,meteohub,2013-01-30 23:52:00,
2013-01-30 17:57:00,62.6,17.2,30.07,NW,326,11.0,21.0,17,0.00,,,0.01,meteohub,2013-01-30 23:57:00,
2013-01-30 18:02:00,62.2,16.9,30.07,NW,307,7.0,18.0,17,0.00,,,0.01,meteohub,2013-01-31 00:02:00,
2013-01-30 18:07:00,62.1,16.7,30.08,NNW,330,7.0,15.0,17,0.00,,,0.00,meteohub,2013-01-31 00:07:00,
2013-01-30 18:12:00,61.7,17.8,30.08,NNW,337,5.0,13.0,18,0.00,,,0.00,meteohub,2013-01-31 00:12:00,
2013-01-30 18:17:00,61.3,17.4,30.08,NNW,333,3.0,12.0,18,0.00,,,0.00,meteohub,2013-01-31 00:17:00,
2013-01-30 18:22:00,61.2,17.2,30.09,NW,311,4.0,10.0,18,0.00,,,0.00,meteohub,2013-01-31 00:22:00,
2013-01-30 18:27:00,60.8,18.3,30.09,NW,318,6.0,9.0,19,0.00,,,0.00,meteohub,2013-01-31 00:27:00,
2013-01-30 18:32:00,60.4,18.0,30.09,NW,316,4.0,9.0,19,0.00,,,0.00,meteohub,2013-01-31 00:32:00,
2013-01-30 18:37:00,60.1,17.6,30.09,NNW,333,2.0,7.0,19,0.00,,,0.00,meteohub,2013-01-31 00:37:00,
2013-01-30 18:42:00,59.9,18.7,30.10,NW,307,3.0,7.0,20,0.00,,,0.00,meteohub,2013-01-31 00:42:00,
2013-01-30 18:47:00,59.5,18.5,30.10,WNW,287,4.0,7.0,20,0.00,,,0.00,meteohub,2013-01-31 00:47:00,
2013-01-30 18:52:00,59.4,18.3,30.10,NNW,331,1.0,7.0,20,0.00,,,0.00,meteohub,2013-01-31 00:52:00,
2013-01-30 18:57:00,59.0,18.0,30.11,NNW,343,1.0,6.0,20,0.00,,,0.00,meteohub,2013-01-31 00:57:00,
2013-01-30 19:02:00,58.6,17.6,30.11,North,4,2.0,6.0,20,0.00,,,0.00,meteohub,2013-01-31 01:02:00,
2013-01-30 19:07:00,58.5,18.7,30.11,NNW,343,2.0,5.0,21,0.00,,,0.00,meteohub,2013-01-31 01:07:00,
2013-01-30 19:12:00,58.3,18.5,30.11,NNW,346,1.0,4.0,21,0.00,,,0.00,meteohub,2013-01-31 01:12:00,
2013-01-30 19:17:00,57.9,19.2,30.11,NNW,334,2.0,4.0,22,0.00,,,0.00,meteohub,2013-01-31 01:17:00,
2013-01-30 19:22:00,57.6,19.0,30.12,NW,326,2.0,4.0,22,0.00,,,0.00,meteohub,2013-01-31 01:22:00,
2013-01-30 19:27:00,57.2,18.7,30.12,NNW,343,1.0,3.0,22,0.00,,,0.00,meteohub,2013-01-31 01:27:00,
2013-01-30 19:32:00,56.8,19.4,30.13,NNW,346,0.0,3.0,23,0.00,,,0.00,meteohub,2013-01-31 01:32:00,
2013-01-30 19:37:00,56.7,19.2,30.13,NNW,346,0.0,3.0,23,0.00,,,0.00,meteohub,2013-01-31 01:37:00,
2013-01-30 19:42:00,56.7,18.3,30.13,North,0,3.0,4.0,22,0.00,,,0.00,meteohub,2013-01-31 01:42:00,
2013-01-30 19:47:00,56.5,18.1,30.13,North,349,3.0,4.0,22,0.00,,,0.00,meteohub,2013-01-31 01:47:00,
2013-01-30 19:52:00,56.5,19.0,30.14,NNE,16,2.0,4.0,23,0.00,,,0.00,meteohub,2013-01-31 01:52:00,
2013-01-30 19:57:00,56.3,19.0,30.14,North,355,1.0,4.0,23,0.00,,,0.00,meteohub,2013-01-31 01:57:00,
2013-01-30 20:02:00,56.3,18.0,30.14,NNW,346,1.0,4.0,22,0.00,,,0.00,meteohub,2013-01-31 02:02:00,
2013-01-30 20:07:00,56.1,18.9,30.14,NNW,333,2.0,3.0,23,0.00,,,0.00,meteohub,2013-01-31 02:07:00,
2013-01-30 20:12:00,55.9,18.7,30.14,North,353,2.0,3.0,23,0.00,,,0.00,meteohub,2013-01-31 02:12:00,
2013-01-30 20:17:00,55.8,18.5,30.14,NNE,30,1.0,3.0,23,0.00,,,0.00,meteohub,2013-01-31 02:17:00,
2013-01-30 20:22:00,55.2,18.1,30.15,NNE,26,1.0,3.0,23,0.00,,,0.00,meteohub,2013-01-31 02:22:00,
2013-01-30 20:27:00,55.0,18.0,30.14,NNW,346,3.0,3.0,23,0.00,,,0.00,meteohub,2013-01-31 02:27:00,
2013-01-30 20:32:00,54.9,17.8,30.14,NNE,15,1.0,3.0,23,0.00,,,0.00,meteohub,2013-01-31 02:32:00,
2013-01-30 20:37:00,54.7,18.5,30.14,NE,44,2.0,4.0,24,0.00,,,0.00,meteohub,2013-01-31 02:37:00,
2013-01-30 20:42:00,54.1,19.0,30.15,NE,51,1.0,4.0,25,0.00,,,0.00,meteohub,2013-01-31 02:42:00,
2013-01-30 20:47:00,53.8,18.9,30.14,NNE,30,2.0,3.0,25,0.00,,,0.00,meteohub,2013-01-31 02:47:00,
2013-01-30 20:52:00,53.4,18.5,30.15,North,4,2.0,3.0,25,0.00,,,0.00,meteohub,2013-01-31 02:52:00,
2013-01-30 20:57:00,53.2,18.3,30.15,North,0,1.0,3.0,25,0.00,,,0.00,meteohub,2013-01-31 02:57:00,
2013-01-30 21:02:00,53.1,19.0,30.15,NNE,13,3.0,3.0,26,0.00,,,0.00,meteohub,2013-01-31 03:02:00,
2013-01-30 21:07:00,52.9,18.9,30.15,North,357,1.0,3.0,26,0.00,,,0.00,meteohub,2013-01-31 03:07:00,
2013-01-30 21:11:00,52.9,18.0,30.16,North,6,4.0,4.0,25,0.00,,,0.00,meteohub,2013-01-31 03:11:00,
2013-01-30 21:16:00,53.1,18.1,30.16,NNE,20,1.0,5.0,25,0.00,,,0.00,meteohub,2013-01-31 03:16:00,
2013-01-30 21:21:00,52.9,18.9,30.16,NNE,13,2.0,5.0,26,0.00,,,0.00,meteohub,2013-01-31 03:21:00,
2013-01-30 21:26:00,52.5,17.8,30.16,NNE,19,3.0,5.0,25,0.00,,,0.00,meteohub,2013-01-31 03:26:00,
2013-01-30 21:31:00,52.5,18.7,30.17,NNE,22,3.0,5.0,26,0.00,,,0.00,meteohub,2013-01-31 03:31:00,
2013-01-30 21:36:00,52.3,18.5,30.17,North,9,1.0,5.0,26,0.00,,,0.00,meteohub,2013-01-31 03:36:00,
2013-01-30 21:41:00,52.3,18.5,30.17,North,10,2.0,5.0,26,0.00,,,0.00,meteohub,2013-01-31 03:41:00,
2013-01-30 21:47:00,52.2,19.2,30.17,NNE,20,2.0,4.0,27,0.00,,,0.00,meteohub,2013-01-31 03:47:00,
2013-01-30 21:52:00,51.6,19.6,30.17,NNE,15,2.0,4.0,28,0.00,,,0.00,meteohub,2013-01-31 03:52:00,
2013-01-30 21:57:00,51.4,18.5,30.17,North,1,2.0,4.0,27,0.00,,,0.00,meteohub,2013-01-31 03:57:00,
2013-01-30 22:02:00,51.6,18.7,30.18,NNW,331,4.0,4.0,27,0.00,,,0.00,meteohub,2013-01-31 04:02:00,
2013-01-30 22:07:00,51.6,18.7,30.19,NNE,27,3.0,5.0,27,0.00,,,0.00,meteohub,2013-01-31 04:07:00,
2013-01-30 22:12:00,51.4,18.5,30.19,NE,36,2.0,5.0,27,0.00,,,0.00,meteohub,2013-01-31 04:12:00,
2013-01-30 22:17:00,51.3,19.2,30.18,NNE,28,2.0,5.0,28,0.00,,,0.00,meteohub,2013-01-31 04:17:00,
2013-01-30 22:22:00,51.1,19.0,30.19,NNE,33,2.0,5.0,28,0.00,,,0.00,meteohub,2013-01-31 04:22:00,
2013-01-30 22:27:00,51.3,18.3,30.19,North,0,3.0,5.0,27,0.00,,,0.00,meteohub,2013-01-31 04:27:00,
2013-01-30 22:32:00,51.3,19.2,30.17,NE,34,4.0,4.0,28,0.00,,,0.00,meteohub,2013-01-31 04:32:00,
2013-01-30 22:37:00,51.4,19.4,30.19,NE,53,2.0,6.0,28,0.00,,,0.00,meteohub,2013-01-31 04:37:00,
2013-01-30 22:42:00,51.4,18.5,30.18,NNE,28,3.0,6.0,27,0.00,,,0.00,meteohub,2013-01-31 04:42:00,
2013-01-30 22:47:00,51.3,19.2,30.19,NNE,26,2.0,6.0,28,0.00,,,0.00,meteohub,2013-01-31 04:47:00,
2013-01-30 22:52:00,50.7,18.9,30.19,NNE,17,4.0,5.0,28,0.00,,,0.00,meteohub,2013-01-31 04:52:00,
2013-01-30 22:57:00,50.4,18.5,30.19,ENE,57,2.0,6.0,28,0.00,,,0.00,meteohub,2013-01-31 04:57:00,
2013-01-30 23:00:00,50.2,18.3,30.19,NE,46,4.0,6.0,28,0.00,,,0.00,meteohub,2013-01-31 05:00:00,
2013-01-30 23:01:00,50.2,18.3,30.19,NE,51,2.0,6.0,28,0.00,,,0.00,meteohub,2013-01-31 05:01:00,
2013-01-30 23:06:00,49.8,18.0,30.19,NE,43,4.0,6.0,28,0.00,,,0.00,meteohub,2013-01-31 05:06:00,
2013-01-30 23:07:00,49.8,18.0,30.19,NE,41,1.0,6.0,28,0.00,,,0.00,meteohub,2013-01-31 05:07:00,
2013-01-30 23:12:00,49.8,18.9,30.19,NNE,19,2.0,7.0,29,0.00,,,0.00,meteohub,2013-01-31 05:12:00,
2013-01-30 23:17:00,49.6,18.7,30.19,NNE,13,2.0,7.0,29,0.00,,,0.00,meteohub,2013-01-31 05:17:00,
2013-01-30 23:22:00,49.6,18.7,30.19,NE,44,2.0,7.0,29,0.00,,,0.00,meteohub,2013-01-31 05:22:00,
2013-01-30 23:27:00,49.8,18.9,30.19,NE,36,2.0,5.0,29,0.00,,,0.00,meteohub,2013-01-31 05:27:00,
2013-01-30 23:32:00,49.6,18.7,30.19,NE,45,1.0,5.0,29,0.00,,,0.00,meteohub,2013-01-31 05:32:00,
2013-01-30 23:37:00,49.6,18.7,30.20,NE,37,1.0,5.0,29,0.00,,,0.00,meteohub,2013-01-31 05:37:00,
2013-01-30 23:42:00,49.5,18.5,30.20,NNE,29,0.0,5.0,29,0.00,,,0.00,meteohub,2013-01-31 05:42:00,
2013-01-30 23:47:00,49.3,18.3,30.20,NE,43,1.0,4.0,29,0.00,,,0.00,meteohub,2013-01-31 05:47:00,
2013-01-30 23:52:00,49.3,19.2,30.20,NE,51,1.0,4.0,30,0.00,,,0.00,meteohub,2013-01-31 05:52:00,
2013-01-30 23:57:00,49.3,19.2,30.20,NNE,26,1.0,4.0,30,0.00,,,0.00,meteohub,2013-01-31 05:57:00,